Time;durP1;ratioP1;P1;durP2;ratioP2;P2;SDS_P1;SDS_P2;PMS_P1;PMS_P2;Temp;Humidity;BMP_temperature;BMP_pressure;BME280_temperature;BME280_humidity;BME280_pressure;Samples;Min_cycle;Max_cycle;Signal;HPM_P1;HPM_P2
2022/03/13 00:00:38;;;;;;;16.97;13.47;;;;;;;;;;2073656;28;20168;-56
2022/03/13 00:01:38;;;;;;;15.07;13.47;;;;;;;;;;2058920;28;20261;-56
2022/03/13 00:02:40;;;;;;;14.23;12.73;;;;;;;;;;2066245;28;20205;-59
2022/03/13 00:03:41;;;;;;;15.37;12.90;;;;;;;;;;2069645;28;20578;-58
2022/03/13 00:04:43;;;;;;;15.13;13.10;;;;;;;;;;2074692;28;20212;-59
2022/03/13 00:05:47;;;;;;;15.87;13.67;;;;;;;;;;2070301;28;20170;-59
2022/03/13 00:06:48;;;;;;;14.30;12.43;;;;;;;;;;2078559;28;20193;-59
2022/03/13 00:07:50;;;;;;;15.27;12.83;;;;;;;;;;2072694;28;20158;-58
2022/03/13 00:08:52;;;;;;;14.03;12.53;;;;;;;;;;2073292;28;20197;-58
2022/03/13 00:09:52;;;;;;;15.97;13.30;;;;;;;;;;2074833;28;20180;-57
2022/03/13 00:10:57;;;;;;;18.50;13.67;;;;;;;;;;2069638;28;20182;-60
2022/03/13 00:11:58;;;;;;;15.67;12.63;;;;;;;;;;2076632;28;20177;-58
2022/03/13 00:12:58;;;;;;;15.53;13.17;;;;;;;;;;2075994;28;20180;-56
2022/03/13 00:13:59;;;;;;;17.53;15.60;;;;;;;;;;2075480;28;20177;-56
2022/03/13 00:15:05;;;;;;;16.37;14.00;;;;;;;;;;2074243;28;20240;-56
2022/03/13 00:16:08;;;;;;;15.60;13.87;;;;;;;;;;2071826;28;20157;-58
2022/03/13 00:17:11;;;;;;;18.27;14.60;;;;;;;;;;2072059;28;20205;-56
2022/03/13 00:18:12;;;;;;;18.93;16.93;;;;;;;;;;2070927;28;20173;-56
2022/03/13 00:19:12;;;;;;;16.55;14.60;;;;;;;;;;2069045;28;20237;-59
2022/03/13 00:20:13;;;;;;;14.73;12.90;;;;;;;;;;2071216;28;20179;-59
2022/03/13 00:21:14;;;;;;;18.05;16.08;;;;;;;;;;2072949;28;20207;-58
2022/03/13 00:22:15;;;;;;;17.00;14.47;;;;;;;;;;2070848;28;20769;-60
2022/03/13 00:23:15;;;;;;;17.60;14.50;;;;;;;;;;2066540;28;20213;-56
2022/03/13 00:24:20;;;;;;;19.70;15.07;;;;;;;;;;2067030;28;20177;-57
2022/03/13 00:25:20;;;;;;;17.97;16.07;;;;;;;;;;2076542;28;20169;-60
2022/03/13 00:26:20;;;;;;;15.17;13.57;;;;;;;;;;2063619;28;20190;-60
2022/03/13 00:27:21;;;;;;;15.43;13.30;;;;;;;;;;2064728;28;20240;-57
2022/03/13 00:28:21;;;;;;;14.73;12.67;;;;;;;;;;2073389;28;20218;-56
2022/03/13 00:29:23;;;;;;;15.87;13.43;;;;;;;;;;2075853;28;20176;-59
2022/03/13 00:30:23;;;;;;;14.63;13.13;;;;;;;;;;2076971;28;20161;-58
2022/03/13 00:31:24;;;;;;;14.93;13.13;;;;;;;;;;2075843;28;20161;-58
2022/03/13 00:32:25;;;;;;;14.87;12.63;;;;;;;;;;2074813;28;20200;-59
2022/03/13 00:33:25;;;;;;;13.40;12.07;;;;;;;;;;2069449;28;20178;-56
2022/03/13 00:34:25;;;;;;;17.30;13.63;;;;;;;;;;2068288;28;20718;-57
2022/03/13 00:35:26;;;;;;;14.23;12.67;;;;;;;;;;2069764;28;20178;-56
2022/03/13 00:36:26;;;;;;;15.30;13.20;;;;;;;;;;2072426;28;20770;-56
2022/03/13 00:37:27;;;;;;;15.33;13.40;;;;;;;;;;2071564;28;20228;-55
2022/03/13 00:38:27;;;;;;;12.70;11.50;;;;;;;;;;2068240;28;20173;-59
2022/03/13 00:39:28;;;;;;;17.20;14.07;;;;;;;;;;2058977;28;20232;-56
2022/03/13 00:40:28;;;;;;;14.97;13.23;;;;;;;;;;2061143;28;20178;-55
2022/03/13 00:41:29;;;;;;;15.40;13.20;;;;;;;;;;2076084;28;20208;-55
2022/03/13 00:42:29;;;;;;;16.57;13.57;;;;;;;;;;2076044;28;20201;-54
2022/03/13 00:43:29;;;;;;;15.47;12.90;;;;;;;;;;2076076;28;20211;-57
2022/03/13 00:44:29;;;;;;;13.63;12.33;;;;;;;;;;2075009;28;20172;-58
2022/03/13 00:45:30;;;;;;;15.53;13.27;;;;;;;;;;2076029;28;20193;-55
2022/03/13 00:46:30;;;;;;;14.73;13.13;;;;;;;;;;2076456;28;20195;-55
2022/03/13 00:47:34;;;;;;;16.57;13.37;;;;;;;;;;2074814;28;20275;-57
2022/03/13 00:48:34;;;;;;;17.60;12.53;;;;;;;;;;2076350;28;20195;-57
2022/03/13 00:49:34;;;;;;;14.83;13.10;;;;;;;;;;2076169;28;20176;-55
2022/03/13 00:50:34;;;;;;;14.23;12.07;;;;;;;;;;2076861;28;20173;-54
2022/03/13 00:51:35;;;;;;;14.00;11.90;;;;;;;;;;2076957;28;20646;-57
2022/03/13 00:52:35;;;;;;;14.50;12.67;;;;;;;;;;2076183;28;20169;-56
2022/03/13 00:53:37;;;;;;;15.33;12.70;;;;;;;;;;2068998;28;20184;-57
2022/03/13 00:54:37;;;;;;;15.57;12.70;;;;;;;;;;2075111;28;20179;-56
2022/03/13 00:55:38;;;;;;;14.00;12.23;;;;;;;;;;2068209;28;20182;-59
2022/03/13 00:56:38;;;;;;;15.13;12.37;;;;;;;;;;2076564;28;20177;-57
2022/03/13 00:57:38;;;;;;;14.83;12.37;;;;;;;;;;2075482;28;20188;-59
2022/03/13 00:58:40;;;;;;;16.33;12.33;;;;;;;;;;2076449;28;20177;-58
2022/03/13 00:59:40;;;;;;;13.87;12.40;;;;;;;;;;2074673;28;20177;-60
2022/03/13 01:00:41;;;;;;;15.00;12.23;;;;;;;;;;2075251;28;20207;-57
2022/03/13 01:01:41;;;;;;;15.77;13.20;;;;;;;;;;2074224;28;20208;-57
2022/03/13 01:02:41;;;;;;;14.90;12.43;;;;;;;;;;2074366;28;20212;-54
2022/03/13 01:03:42;;;;;;;19.77;14.20;;;;;;;;;;2074667;28;20559;-55
2022/03/13 01:04:42;;;;;;;14.67;12.70;;;;;;;;;;2073923;28;20190;-57
2022/03/13 01:05:42;;;;;;;14.00;12.50;;;;;;;;;;2073878;28;20247;-58
2022/03/13 01:06:46;;;;;;;14.83;12.67;;;;;;;;;;2074061;28;20701;-57
2022/03/13 01:07:46;;;;;;;16.77;13.37;;;;;;;;;;2074050;28;20204;-57
2022/03/13 01:08:46;;;;;;;18.70;14.60;;;;;;;;;;2074126;28;20223;-58
2022/03/13 01:09:47;;;;;;;16.37;13.00;;;;;;;;;;2074425;28;20291;-59
2022/03/13 01:10:49;;;;;;;16.03;13.73;;;;;;;;;;2074549;28;20578;-57
2022/03/13 01:11:49;;;;;;;16.23;13.10;;;;;;;;;;2075148;28;20539;-58
2022/03/13 01:12:51;;;;;;;18.07;13.37;;;;;;;;;;2075305;28;20184;-57
2022/03/13 01:13:51;;;;;;;15.40;12.97;;;;;;;;;;2074699;28;20640;-59
2022/03/13 01:14:51;;;;;;;16.37;12.37;;;;;;;;;;2075264;28;20200;-57
2022/03/13 01:15:58;;;;;;;16.27;12.77;;;;;;;;;;2075101;28;20210;-59
2022/03/13 01:17:01;;;;;;;14.57;13.03;;;;;;;;;;2074863;28;20645;-56
2022/03/13 01:18:02;;;;;;;13.43;12.00;;;;;;;;;;2060428;28;20178;-57
2022/03/13 01:19:03;;;;;;;15.00;12.03;;;;;;;;;;2069685;28;20173;-60
2022/03/13 01:20:05;;;;;;;16.70;12.47;;;;;;;;;;2062262;28;20269;-57
2022/03/13 01:21:06;;;;;;;15.70;11.97;;;;;;;;;;2059118;28;20182;-59
2022/03/13 01:22:07;;;;;;;13.27;11.87;;;;;;;;;;2074676;28;20222;-58
2022/03/13 01:23:08;;;;;;;16.73;11.80;;;;;;;;;;2074864;28;20212;-57
2022/03/13 01:24:11;;;;;;;14.53;12.67;;;;;;;;;;2075019;28;20264;-58
2022/03/13 01:25:13;;;;;;;13.67;11.40;;;;;;;;;;2075367;28;20181;-60
2022/03/13 01:26:22;;;;;;;16.70;12.20;;;;;;;;;;2083510;28;20606;-57
2022/03/13 01:27:22;;;;;;;15.63;12.27;;;;;;;;;;2083908;28;20202;-59
2022/03/13 01:28:22;;;;;;;12.47;11.10;;;;;;;;;;2084045;28;20184;-57
2022/03/13 01:29:23;;;;;;;13.83;12.00;;;;;;;;;;2084169;28;20696;-57
2022/03/13 01:30:24;;;;;;;14.37;11.73;;;;;;;;;;2084309;28;20187;-58
2022/03/13 01:31:25;;;;;;;13.57;10.97;;;;;;;;;;2083384;28;20192;-58
2022/03/13 01:32:25;;;;;;;14.40;12.10;;;;;;;;;;2083319;28;20168;-57
2022/03/13 01:33:26;;;;;;;14.17;12.17;;;;;;;;;;2083282;28;20184;-57
2022/03/13 01:34:36;;;;;;;12.97;11.67;;;;;;;;;;2083212;28;20172;-57
2022/03/13 01:35:36;;;;;;;13.13;11.07;;;;;;;;;;2083212;28;20194;-59
2022/03/13 01:36:37;;;;;;;13.20;11.03;;;;;;;;;;2078413;28;20264;-56
2022/03/13 01:37:40;;;;;;;13.60;11.47;;;;;;;;;;2075241;28;20266;-56
2022/03/13 01:38:46;;;;;;;13.87;12.27;;;;;;;;;;2073724;28;20173;-59
2022/03/13 01:39:48;;;;;;;13.73;11.77;;;;;;;;;;2074736;28;20180;-57
2022/03/13 01:40:48;;;;;;;12.57;11.13;;;;;;;;;;2071695;28;20186;-57
2022/03/13 01:41:49;;;;;;;12.67;11.37;;;;;;;;;;2074504;28;20184;-63
2022/03/13 01:42:50;;;;;;;16.13;12.10;;;;;;;;;;2070700;28;20244;-55
2022/03/13 01:43:51;;;;;;;13.07;11.47;;;;;;;;;;2074236;28;20172;-54
2022/03/13 01:44:52;;;;;;;12.10;10.37;;;;;;;;;;2069229;28;20261;-58
2022/03/13 01:45:53;;;;;;;12.97;10.87;;;;;;;;;;2074312;28;20231;-56
2022/03/13 01:46:53;;;;;;;12.60;11.30;;;;;;;;;;2073264;28;20267;-58
2022/03/13 01:47:55;;;;;;;13.03;11.73;;;;;;;;;;2073201;28;20195;-57
2022/03/13 01:48:57;;;;;;;12.07;10.87;;;;;;;;;;2068251;28;20434;-57
2022/03/13 01:49:57;;;;;;;14.43;11.30;;;;;;;;;;2073057;28;20177;-56
2022/03/13 01:50:57;;;;;;;12.93;11.53;;;;;;;;;;2068208;28;20172;-58
2022/03/13 01:51:58;;;;;;;11.97;10.70;;;;;;;;;;2070559;28;20165;-56
2022/03/13 01:52:58;;;;;;;11.97;10.83;;;;;;;;;;2073931;28;20179;-55
2022/03/13 01:53:59;;;;;;;12.83;11.23;;;;;;;;;;2073344;28;20287;-56
2022/03/13 01:54:59;;;;;;;14.53;10.20;;;;;;;;;;2073674;28;20183;-58
2022/03/13 01:56:00;;;;;;;12.80;11.53;;;;;;;;;;2067657;28;20618;-56
2022/03/13 01:57:01;;;;;;;12.70;10.93;;;;;;;;;;2069495;28;20542;-55
2022/03/13 01:58:01;;;;;;;14.03;11.17;;;;;;;;;;2070157;28;20204;-57
2022/03/13 01:59:02;;;;;;;14.27;11.73;;;;;;;;;;2070885;28;20175;-57
2022/03/13 02:00:03;;;;;;;14.43;11.13;;;;;;;;;;2073729;28;20324;-55
2022/03/13 02:01:04;;;;;;;12.07;10.77;;;;;;;;;;2073611;28;20331;-56
2022/03/13 02:02:04;;;;;;;12.27;11.00;;;;;;;;;;2068931;28;20234;-57
2022/03/13 02:03:04;;;;;;;15.27;10.80;;;;;;;;;;2073437;28;20184;-57
2022/03/13 02:04:05;;;;;;;13.70;11.10;;;;;;;;;;2068941;28;20184;-58
2022/03/13 02:05:18;;;;;;;12.23;10.70;;;;;;;;;;2072830;28;20602;-56
2022/03/13 02:06:20;;;;;;;11.80;10.60;;;;;;;;;;2067738;28;20233;-61
2022/03/13 02:07:21;;;;;;;12.20;10.93;;;;;;;;;;2065538;28;20186;-58
2022/03/13 02:08:22;;;;;;;13.23;10.93;;;;;;;;;;2064803;28;20298;-58
2022/03/13 02:09:22;;;;;;;11.30;10.10;;;;;;;;;;2073819;28;20192;-54
2022/03/13 02:10:22;;;;;;;15.23;11.07;;;;;;;;;;2072751;28;20235;-58
2022/03/13 02:11:23;;;;;;;13.37;10.90;;;;;;;;;;2074009;28;20169;-58
2022/03/13 02:12:26;;;;;;;12.00;10.80;;;;;;;;;;2069141;28;20264;-57
2022/03/13 02:13:27;;;;;;;15.60;11.43;;;;;;;;;;2071399;28;20255;-58
2022/03/13 02:14:28;;;;;;;13.80;11.47;;;;;;;;;;2064804;28;20196;-57
2022/03/13 02:15:29;;;;;;;13.23;11.47;;;;;;;;;;2070914;28;20290;-60
2022/03/13 02:16:33;;;;;;;14.27;11.77;;;;;;;;;;2073043;28;20183;-57
2022/03/13 02:17:34;;;;;;;13.67;11.10;;;;;;;;;;2065273;28;20245;-56
2022/03/13 02:18:34;;;;;;;11.97;10.70;;;;;;;;;;2073156;28;20927;-61
2022/03/13 02:19:35;;;;;;;12.03;10.83;;;;;;;;;;2072500;28;20204;-59
2022/03/13 02:20:38;;;;;;;12.70;10.73;;;;;;;;;;2073580;28;20173;-57
2022/03/13 02:21:44;;;;;;;11.23;10.13;;;;;;;;;;2071684;28;20188;-59
2022/03/13 02:22:45;;;;;;;11.77;10.57;;;;;;;;;;2074334;28;20200;-58
2022/03/13 02:23:45;;;;;;;14.60;10.50;;;;;;;;;;2070866;28;20547;-57
2022/03/13 02:24:48;;;;;;;11.23;10.10;;;;;;;;;;2071246;28;20176;-58
2022/03/13 02:25:52;;;;;;;11.37;10.23;;;;;;;;;;2064709;28;20213;-58
2022/03/13 02:27:03;;;;;;;17.33;11.20;;;;;;;;;;2074230;28;20216;-57
2022/03/13 02:28:03;;;;;;;11.37;10.17;;;;;;;;;;2071204;28;20168;-56
2022/03/13 02:29:04;;;;;;;13.43;10.70;;;;;;;;;;2074152;28;20236;-57
2022/03/13 02:30:08;;;;;;;14.57;11.10;;;;;;;;;;2052250;28;20265;-59
2022/03/13 02:31:13;;;;;;;12.93;10.53;;;;;;;;;;2061586;28;20186;-57
2022/03/13 02:32:13;;;;;;;11.67;10.47;;;;;;;;;;2069336;28;20186;-58
2022/03/13 02:33:17;;;;;;;12.90;11.40;;;;;;;;;;2068535;28;20197;-59
2022/03/13 02:34:18;;;;;;;12.83;11.40;;;;;;;;;;2073524;28;20670;-58
2022/03/13 02:35:19;;;;;;;12.67;11.07;;;;;;;;;;2073432;28;20222;-59
2022/03/13 02:36:31;;;;;;;11.73;10.63;;;;;;;;;;2066443;28;20186;-57
2022/03/13 02:37:34;;;;;;;11.47;10.33;;;;;;;;;;2066049;28;20206;-57
2022/03/13 02:38:34;;;;;;;15.63;10.77;;;;;;;;;;2072899;28;20169;-59
2022/03/13 02:39:36;;;;;;;11.50;10.30;;;;;;;;;;2068134;28;20173;-59
2022/03/13 02:40:36;;;;;;;13.17;11.27;;;;;;;;;;2065050;28;20180;-57
2022/03/13 02:41:40;;;;;;;11.57;10.47;;;;;;;;;;2058336;28;20564;-60
2022/03/13 02:42:40;;;;;;;13.37;10.57;;;;;;;;;;2064334;28;20193;-58
2022/03/13 02:43:41;;;;;;;10.83;9.83;;;;;;;;;;2072647;28;20264;-57
2022/03/13 02:44:41;;;;;;;11.93;10.27;;;;;;;;;;2072879;28;20177;-56
2022/03/13 02:45:41;;;;;;;18.73;11.37;;;;;;;;;;2066890;28;20232;-57
2022/03/13 02:46:42;;;;;;;13.70;10.60;;;;;;;;;;2073331;28;20205;-60
2022/03/13 02:47:43;;;;;;;11.57;10.37;;;;;;;;;;2064872;28;20758;-58
2022/03/13 02:48:43;;;;;;;11.13;9.93;;;;;;;;;;2070774;28;20603;-57
2022/03/13 02:49:43;;;;;;;12.40;10.50;;;;;;;;;;2068747;28;20669;-57
2022/03/13 02:50:45;;;;;;;10.27;9.23;;;;;;;;;;2072018;28;20215;-57
2022/03/13 02:51:46;;;;;;;11.10;10.03;;;;;;;;;;2066330;28;20166;-58
2022/03/13 02:52:47;;;;;;;12.13;10.80;;;;;;;;;;2071322;28;20893;-59
2022/03/13 02:53:47;;;;;;;13.83;10.40;;;;;;;;;;2064980;28;20165;-59
2022/03/13 02:54:47;;;;;;;13.13;10.43;;;;;;;;;;2066441;28;20276;-56
2022/03/13 02:55:47;;;;;;;12.13;10.77;;;;;;;;;;2072850;28;20165;-56
2022/03/13 02:56:48;;;;;;;12.37;10.93;;;;;;;;;;2072678;28;20225;-57
2022/03/13 02:57:48;;;;;;;10.43;9.33;;;;;;;;;;2072764;28;20184;-57
2022/03/13 02:58:49;;;;;;;13.57;10.03;;;;;;;;;;2072260;28;20201;-52
2022/03/13 02:59:49;;;;;;;12.37;9.40;;;;;;;;;;2060290;28;20224;-56
2022/03/13 03:00:50;;;;;;;10.93;9.83;;;;;;;;;;2071172;28;20182;-59
2022/03/13 03:01:50;;;;;;;10.87;9.83;;;;;;;;;;2072604;28;20184;-57
2022/03/13 03:02:50;;;;;;;12.63;10.43;;;;;;;;;;2072579;28;20236;-60
2022/03/13 03:03:56;;;;;;;12.07;10.17;;;;;;;;;;2073326;28;20173;-58
2022/03/13 03:04:57;;;;;;;12.23;10.23;;;;;;;;;;2070515;28;20165;-56
2022/03/13 03:05:57;;;;;;;14.67;10.70;;;;;;;;;;2072691;28;20656;-55
2022/03/13 03:07:02;;;;;;;13.00;10.23;;;;;;;;;;2065028;28;20177;-56
2022/03/13 03:08:02;;;;;;;10.83;9.70;;;;;;;;;;2066430;28;20178;-55
2022/03/13 03:09:03;;;;;;;15.60;10.47;;;;;;;;;;2069244;28;20192;-57
2022/03/13 03:10:04;;;;;;;13.17;10.03;;;;;;;;;;2072660;28;20173;-55
2022/03/13 03:11:04;;;;;;;12.37;9.73;;;;;;;;;;2072679;28;20169;-56
2022/03/13 03:12:05;;;;;;;12.43;11.13;;;;;;;;;;2072115;28;20188;-59
2022/03/13 03:13:07;;;;;;;12.50;10.17;;;;;;;;;;2068894;28;20611;-54
2022/03/13 03:14:08;;;;;;;10.53;9.43;;;;;;;;;;2071963;28;20646;-55
2022/03/13 03:15:08;;;;;;;11.70;9.87;;;;;;;;;;2067948;28;20174;-59
2022/03/13 03:16:09;;;;;;;10.90;9.80;;;;;;;;;;2070021;28;20177;-57
2022/03/13 03:17:09;;;;;;;10.83;9.77;;;;;;;;;;2075585;28;20242;-52
2022/03/13 03:18:10;;;;;;;11.60;10.50;;;;;;;;;;2069595;28;20181;-54
2022/03/13 03:19:10;;;;;;;11.20;9.73;;;;;;;;;;2071922;28;20181;-56
2022/03/13 03:20:11;;;;;;;10.43;9.37;;;;;;;;;;2076430;28;20272;-57
2022/03/13 03:21:13;;;;;;;11.70;10.47;;;;;;;;;;2075188;28;20284;-55
2022/03/13 03:22:13;;;;;;;11.73;9.93;;;;;;;;;;2073257;28;20173;-57
2022/03/13 03:23:14;;;;;;;13.63;10.43;;;;;;;;;;2075239;28;20172;-55
2022/03/13 03:24:16;;;;;;;11.33;10.13;;;;;;;;;;2072450;28;20250;-57
2022/03/13 03:25:23;;;;;;;11.10;10.03;;;;;;;;;;2074534;28;20212;-57
2022/03/13 03:26:24;;;;;;;12.60;10.80;;;;;;;;;;2068119;28;20173;-58
2022/03/13 03:27:24;;;;;;;10.83;9.73;;;;;;;;;;2066855;28;20193;-57
2022/03/13 03:28:24;;;;;;;13.67;10.93;;;;;;;;;;2058356;28;20739;-54
2022/03/13 03:29:25;;;;;;;11.23;10.07;;;;;;;;;;2068284;28;20611;-53
2022/03/13 03:30:27;;;;;;;12.97;10.93;;;;;;;;;;2066107;28;20643;-56
2022/03/13 03:31:28;;;;;;;12.87;10.90;;;;;;;;;;2068643;28;20263;-58
2022/03/13 03:32:28;;;;;;;12.00;10.17;;;;;;;;;;2074286;28;20230;-56
2022/03/13 03:33:29;;;;;;;13.07;10.73;;;;;;;;;;2068067;28;20566;-54
2022/03/13 03:34:29;;;;;;;11.00;9.83;;;;;;;;;;2073485;28;20853;-57
2022/03/13 03:35:30;;;;;;;12.07;9.93;;;;;;;;;;2074854;28;20232;-55
2022/03/13 03:36:30;;;;;;;11.00;9.90;;;;;;;;;;2074986;28;20180;-57
2022/03/13 03:37:34;;;;;;;11.17;10.07;;;;;;;;;;2074533;28;20290;-57
2022/03/13 03:38:34;;;;;;;12.00;9.77;;;;;;;;;;2074441;28;20204;-55
2022/03/13 03:39:34;;;;;;;11.40;10.07;;;;;;;;;;2066148;28;20178;-56
2022/03/13 03:40:35;;;;;;;13.27;10.80;;;;;;;;;;2074001;28;20267;-55
2022/03/13 03:41:35;;;;;;;14.70;11.03;;;;;;;;;;2072469;28;20185;-57
2022/03/13 03:42:36;;;;;;;13.93;10.80;;;;;;;;;;2073690;28;20654;-56
2022/03/13 03:43:36;;;;;;;12.73;11.10;;;;;;;;;;2075369;28;20196;-55
2022/03/13 03:44:36;;;;;;;12.83;10.50;;;;;;;;;;2073889;28;20228;-57
2022/03/13 03:45:37;;;;;;;12.40;10.40;;;;;;;;;;2065733;28;20572;-58
2022/03/13 03:46:38;;;;;;;11.20;10.00;;;;;;;;;;2073235;28;20176;-56
2022/03/13 03:47:38;;;;;;;13.40;10.67;;;;;;;;;;2073711;28;20264;-58
2022/03/13 03:48:39;;;;;;;14.00;10.33;;;;;;;;;;2064771;28;20523;-58
2022/03/13 03:49:39;;;;;;;11.17;9.97;;;;;;;;;;2070942;28;20816;-57
2022/03/13 03:50:39;;;;;;;12.40;10.60;;;;;;;;;;2072282;28;20260;-55
2022/03/13 03:51:40;;;;;;;12.57;10.20;;;;;;;;;;2074385;28;20589;-58
2022/03/13 03:52:41;;;;;;;12.03;10.50;;;;;;;;;;2064327;28;20196;-57
2022/03/13 03:53:41;;;;;;;11.97;10.40;;;;;;;;;;2072849;28;20258;-59
2022/03/13 03:54:41;;;;;;;13.17;10.70;;;;;;;;;;2071601;28;20575;-58
2022/03/13 03:55:42;;;;;;;11.73;9.90;;;;;;;;;;2074408;28;20645;-57
2022/03/13 03:56:42;;;;;;;11.93;10.70;;;;;;;;;;2067990;28;20731;-59
2022/03/13 03:57:43;;;;;;;11.73;10.17;;;;;;;;;;2073731;28;20287;-55
2022/03/13 03:58:43;;;;;;;11.90;10.70;;;;;;;;;;2073278;28;20173;-57
2022/03/13 03:59:44;;;;;;;12.33;10.77;;;;;;;;;;2074383;28;20165;-56
2022/03/13 04:00:44;;;;;;;11.33;9.97;;;;;;;;;;2070383;28;20185;-59
2022/03/13 04:01:44;;;;;;;17.10;10.80;;;;;;;;;;2072393;28;20185;-57
2022/03/13 04:02:45;;;;;;;12.90;10.30;;;;;;;;;;2062926;28;20555;-56
2022/03/13 04:03:45;;;;;;;12.80;11.50;;;;;;;;;;2074465;28;20181;-63
2022/03/13 04:04:46;;;;;;;14.37;10.80;;;;;;;;;;2073501;28;20256;-58
2022/03/13 04:05:47;;;;;;;13.10;10.80;;;;;;;;;;2074430;28;20173;-56
2022/03/13 04:06:47;;;;;;;12.77;10.27;;;;;;;;;;2054544;28;20684;-56
2022/03/13 04:07:47;;;;;;;11.97;10.73;;;;;;;;;;2064021;28;20225;-55
2022/03/13 04:08:48;;;;;;;12.30;10.43;;;;;;;;;;2073949;28;20165;-56
2022/03/13 04:09:48;;;;;;;13.63;10.67;;;;;;;;;;2078372;28;20242;-56
2022/03/13 04:10:48;;;;;;;13.50;9.80;;;;;;;;;;2073769;28;20634;-57
2022/03/13 04:11:49;;;;;;;12.97;10.47;;;;;;;;;;2073492;28;20258;-56
2022/03/13 04:12:49;;;;;;;12.37;10.30;;;;;;;;;;2074638;28;20554;-58
2022/03/13 04:13:49;;;;;;;11.50;10.20;;;;;;;;;;2074321;28;20177;-56
2022/03/13 04:14:52;;;;;;;12.23;10.53;;;;;;;;;;2073124;28;20176;-57
2022/03/13 04:15:52;;;;;;;12.87;10.67;;;;;;;;;;2074629;28;20641;-59
2022/03/13 04:16:53;;;;;;;12.33;10.67;;;;;;;;;;2074262;28;20200;-59
2022/03/13 04:17:55;;;;;;;13.07;10.33;;;;;;;;;;2088378;22;21925;-61
2022/03/13 04:18:55;;;;;;;13.53;11.30;;;;;;;;;;2077820;28;20176;-59
2022/03/13 04:19:56;;;;;;;13.57;10.20;;;;;;;;;;2079042;28;20181;-62
2022/03/13 04:20:56;;;;;;;14.63;10.07;;;;;;;;;;2065529;28;20173;-61
2022/03/13 04:21:57;;;;;;;13.33;11.43;;;;;;;;;;2057872;28;20174;-61
2022/03/13 04:22:57;;;;;;;11.40;10.13;;;;;;;;;;2066046;28;20201;-60
2022/03/13 04:23:58;;;;;;;13.93;11.50;;;;;;;;;;2073944;28;20176;-58
2022/03/13 04:24:58;;;;;;;11.30;10.20;;;;;;;;;;2083266;28;20214;-60
2022/03/13 04:26:01;;;;;;;12.87;10.47;;;;;;;;;;2084101;28;20192;-59
2022/03/13 04:27:02;;;;;;;13.40;10.67;;;;;;;;;;2075781;28;20536;-60
2022/03/13 04:28:04;;;;;;;12.37;11.10;;;;;;;;;;2074931;28;20282;-61
2022/03/13 04:29:06;;;;;;;14.07;10.37;;;;;;;;;;2077119;28;20180;-62
2022/03/13 04:30:08;;;;;;;12.43;9.97;;;;;;;;;;2077358;28;20180;-62
2022/03/13 04:31:08;;;;;;;11.93;10.63;;;;;;;;;;2076317;28;20165;-61
2022/03/13 04:32:09;;;;;;;12.50;11.20;;;;;;;;;;2076307;28;20685;-57
2022/03/13 04:33:09;;;;;;;11.53;10.33;;;;;;;;;;2076394;28;20169;-61
2022/03/13 04:34:10;;;;;;;13.37;10.80;;;;;;;;;;2075004;28;20300;-58
2022/03/13 04:35:10;;;;;;;12.10;10.87;;;;;;;;;;2075069;28;20253;-61
2022/03/13 04:36:13;;;;;;;11.90;10.00;;;;;;;;;;2073471;28;20646;-58
2022/03/13 04:37:16;;;;;;;14.10;11.10;;;;;;;;;;2065810;28;20288;-59
2022/03/13 04:38:16;;;;;;;11.73;10.53;;;;;;;;;;2074243;28;20196;-58
2022/03/13 04:39:17;;;;;;;14.20;10.30;;;;;;;;;;2064084;28;20182;-58
2022/03/13 04:40:17;;;;;;;12.03;10.10;;;;;;;;;;2070525;28;20223;-57
2022/03/13 04:41:18;;;;;;;11.73;10.50;;;;;;;;;;2067082;28;20166;-59
2022/03/13 04:42:19;;;;;;;11.90;10.70;;;;;;;;;;2056110;28;20182;-60
2022/03/13 04:43:20;;;;;;;13.03;10.43;;;;;;;;;;2068489;28;20806;-58
2022/03/13 04:44:21;;;;;;;11.47;9.67;;;;;;;;;;2072021;28;20184;-59
2022/03/13 04:45:22;;;;;;;10.67;9.47;;;;;;;;;;2073264;28;20165;-58
2022/03/13 04:46:23;;;;;;;11.47;10.33;;;;;;;;;;2072330;28;20177;-59
2022/03/13 04:47:23;;;;;;;10.93;9.70;;;;;;;;;;2073533;28;20185;-57
2022/03/13 04:48:23;;;;;;;10.87;9.70;;;;;;;;;;2072849;28;20272;-60
2022/03/13 04:49:23;;;;;;;11.10;10.03;;;;;;;;;;2072547;28;20219;-56
2022/03/13 04:50:23;;;;;;;11.73;9.57;;;;;;;;;;2071384;28;20161;-59
2022/03/13 04:51:24;;;;;;;10.70;9.47;;;;;;;;;;2072147;28;20537;-58
2022/03/13 04:52:24;;;;;;;11.30;10.03;;;;;;;;;;2072356;28;20254;-60
2022/03/13 04:53:25;;;;;;;11.73;9.70;;;;;;;;;;2070663;28;20170;-60
2022/03/13 04:54:25;;;;;;;11.03;9.60;;;;;;;;;;2072271;28;20189;-59
2022/03/13 04:55:25;;;;;;;11.53;10.37;;;;;;;;;;2073123;28;20189;-60
2022/03/13 04:56:26;;;;;;;10.53;9.40;;;;;;;;;;2073489;28;20709;-60
2022/03/13 04:57:26;;;;;;;10.63;9.60;;;;;;;;;;2071162;28;20196;-59
2022/03/13 04:58:26;;;;;;;11.43;9.77;;;;;;;;;;2071163;28;20189;-56
2022/03/13 04:59:29;;;;;;;11.63;10.37;;;;;;;;;;2072959;28;20183;-60
2022/03/13 05:00:30;;;;;;;10.77;9.67;;;;;;;;;;2072031;28;20557;-58
2022/03/13 05:01:30;;;;;;;10.43;9.30;;;;;;;;;;2072889;28;20184;-59
2022/03/13 05:02:31;;;;;;;11.27;9.93;;;;;;;;;;2072823;28;20624;-61
2022/03/13 05:03:33;;;;;;;11.33;9.63;;;;;;;;;;2073641;28;20173;-58
2022/03/13 05:04:33;;;;;;;11.00;9.43;;;;;;;;;;2072248;28;20539;-61
2022/03/13 05:05:34;;;;;;;10.37;9.10;;;;;;;;;;2065863;28;20189;-61
2022/03/13 05:06:37;;;;;;;11.00;9.67;;;;;;;;;;2065210;28;20736;-59
2022/03/13 05:07:38;;;;;;;10.77;9.67;;;;;;;;;;2065462;28;20174;-61
2022/03/13 05:08:40;;;;;;;11.47;9.70;;;;;;;;;;2073701;28;20207;-60
2022/03/13 05:09:40;;;;;;;11.10;10.00;;;;;;;;;;2073052;28;20173;-62
2022/03/13 05:10:42;;;;;;;10.57;9.53;;;;;;;;;;2072684;28;20265;-62
2022/03/13 05:11:43;;;;;;;10.50;9.27;;;;;;;;;;2073064;28;20165;-59
2022/03/13 05:12:43;;;;;;;11.50;9.50;;;;;;;;;;2068317;28;20553;-56
2022/03/13 05:13:44;;;;;;;11.50;10.30;;;;;;;;;;2071141;28;20273;-60
2022/03/13 05:14:44;;;;;;;10.67;9.57;;;;;;;;;;2065287;28;20170;-58
2022/03/13 05:15:45;;;;;;;10.40;9.40;;;;;;;;;;2073100;28;20243;-58
2022/03/13 05:16:45;;;;;;;10.83;9.30;;;;;;;;;;2072751;28;20183;-60
2022/03/13 05:17:46;;;;;;;10.43;9.40;;;;;;;;;;2069822;28;20217;-60
2022/03/13 05:18:46;;;;;;;10.53;9.47;;;;;;;;;;2071531;28;20773;-58
2022/03/13 05:19:46;;;;;;;11.07;9.63;;;;;;;;;;2066090;28;20165;-58
2022/03/13 05:20:47;;;;;;;11.23;9.47;;;;;;;;;;2070871;28;20243;-56
2022/03/13 05:21:47;;;;;;;11.50;10.27;;;;;;;;;;2054988;28;20178;-59
2022/03/13 05:22:48;;;;;;;10.80;9.70;;;;;;;;;;2063088;28;20270;-61
2022/03/13 05:23:48;;;;;;;10.70;9.27;;;;;;;;;;2070221;28;20170;-60
2022/03/13 05:24:49;;;;;;;12.63;10.23;;;;;;;;;;2073383;28;20170;-59
2022/03/13 05:25:49;;;;;;;12.17;9.43;;;;;;;;;;2066575;28;20180;-59
2022/03/13 05:26:49;;;;;;;11.33;10.07;;;;;;;;;;2064225;28;20166;-61
2022/03/13 05:27:50;;;;;;;11.13;9.87;;;;;;;;;;2073555;28;20200;-60
2022/03/13 05:28:51;;;;;;;10.40;9.40;;;;;;;;;;2073465;28;20218;-61
2022/03/13 05:29:51;;;;;;;10.63;9.53;;;;;;;;;;2072728;28;20618;-64
2022/03/13 05:30:52;;;;;;;12.00;9.53;;;;;;;;;;2073214;28;20178;-58
2022/03/13 05:31:52;;;;;;;13.47;9.67;;;;;;;;;;2061714;28;20166;-61
2022/03/13 05:32:52;;;;;;;12.30;9.97;;;;;;;;;;2071669;28;20197;-62
2022/03/13 05:33:52;;;;;;;11.23;9.67;;;;;;;;;;2072105;28;20170;-59
2022/03/13 05:34:53;;;;;;;11.23;9.00;;;;;;;;;;2069436;28;20195;-59
2022/03/13 05:35:54;;;;;;;10.50;9.40;;;;;;;;;;2054942;28;20179;-64
2022/03/13 05:36:54;;;;;;;11.57;9.50;;;;;;;;;;2064291;28;20217;-59
2022/03/13 05:37:54;;;;;;;10.60;9.20;;;;;;;;;;2071404;28;20241;-60
2022/03/13 05:38:55;;;;;;;10.53;9.50;;;;;;;;;;2062100;28;20197;-60
2022/03/13 05:39:56;;;;;;;11.10;10.00;;;;;;;;;;2057008;28;20177;-60
2022/03/13 05:40:57;;;;;;;11.07;9.97;;;;;;;;;;2074155;28;20177;-57
2022/03/13 05:41:59;;;;;;;11.37;9.90;;;;;;;;;;2068177;28;20173;-61
2022/03/13 05:42:59;;;;;;;12.87;9.13;;;;;;;;;;2066933;28;20205;-60
2022/03/13 05:43:59;;;;;;;12.20;10.33;;;;;;;;;;2069619;28;20210;-58
2022/03/13 05:45:00;;;;;;;10.60;9.60;;;;;;;;;;2068506;28;20258;-61
2022/03/13 05:46:00;;;;;;;10.47;9.40;;;;;;;;;;2070628;28;20165;-57
2022/03/13 05:47:00;;;;;;;10.50;9.40;;;;;;;;;;2073537;28;20194;-57
2022/03/13 05:48:05;;;;;;;10.70;9.27;;;;;;;;;;2069938;28;20204;-59
2022/03/13 05:49:06;;;;;;;11.57;10.00;;;;;;;;;;2073653;28;20180;-56
2022/03/13 05:50:07;;;;;;;11.60;9.50;;;;;;;;;;2072255;28;20263;-58
2022/03/13 05:51:07;;;;;;;11.13;10.03;;;;;;;;;;2068827;28;20181;-59
2022/03/13 05:52:08;;;;;;;10.90;9.07;;;;;;;;;;2060330;28;20828;-58
2022/03/13 05:53:08;;;;;;;13.10;10.03;;;;;;;;;;2067682;28;20593;-60
2022/03/13 05:54:09;;;;;;;10.50;9.50;;;;;;;;;;2069624;28;20181;-60
2022/03/13 05:55:10;;;;;;;10.97;9.70;;;;;;;;;;2069325;28;20173;-58
2022/03/13 05:56:11;;;;;;;10.53;9.43;;;;;;;;;;2068187;28;20174;-60
2022/03/13 05:57:11;;;;;;;10.27;9.27;;;;;;;;;;2064521;28;20173;-56